Data for 01/25/2008

Time Sea-Level Adjusted Pressure Absolute Pressure Temperature Relative Humidity Dew Point   
(mb) (inHg) (mb) (inHg) (C) (F) (%) (C) (F)
00:05 1011 29.85 840 24.81 -11.4 11.4 85 -13.5 7.6
00:10 1011 29.85 840 24.81 -11.4 11.6 83 -13.7 7.4
00:15 1011 29.85 840 24.81 -11.3 11.6 84 -13.5 7.7
00:20 1011 29.85 840 24.81 -11.2 11.8 84 -13.5 7.8
00:25 1011 29.85 840 24.81 -10.9 12.4 82 -13.5 7.8
00:30 1011 29.85 840 24.81 -10.9 12.4 82 -13.3 8
00:35 1011 29.85 840 24.81 -11.1 11.9 83 -13.5 7.8
00:40 1011 29.85 840 24.81 -11.1 12 84 -13.4 8
00:45 1011 29.85 840 24.81 -11 12.2 83 -13.4 7.9
00:50 1011 29.85 840 24.81 -10.9 12.3 82 -13.4 7.9
00:55 1011 29.85 840 24.81 -10.9 12.3 83 -13.3 8
01:00 1011 29.85 840 24.81 -11.1 12.1 84 -13.2 8.2
01:05 1011 29.85 840 24.81 -11.2 11.9 84 -13.3 8
01:10 1011 29.85 840 24.81 -11.2 11.8 83 -13.5 7.7
01:15 1011 29.85 840 24.81 -11.4 11.6 83 -13.7 7.4
01:20 1011 29.85 841 24.83 -11.5 11.2 84 -13.7 7.3
01:25 1011 29.85 840 24.81 -11.6 11.1 85 -13.7 7.3
01:30 1011 29.85 841 24.83 -11.9 10.6 86 -13.8 7.1
01:35 1011 29.85 841 24.83 -12.1 10.2 86 -14 6.9
01:40 1012 29.88 841 24.83 -11.8 10.7 84 -13.9 6.9
01:45 1012 29.88 841 24.83 -11.5 11.4 83 -13.8 7.2
01:50 1012 29.88 841 24.83 -11.3 11.7 82 -13.8 7.2
01:55 1012 29.88 841 24.83 -11.5 11.3 82 -14 6.8
02:00 1012 29.88 841 24.83 -11.7 11 83 -14 6.9
02:05 1012 29.88 841 24.83 -11.3 11.7 82 -13.8 7.1
02:10 1011 29.85 841 24.83 -11.4 11.5 83 -13.8 7.2
02:15 1011 29.85 841 24.83 -11.7 10.9 84 -13.9 7
02:20 1011 29.85 840 24.81 -11.9 10.7 84 -14.1 6.7
02:25 1011 29.85 840 24.81 -11.8 10.8 83 -14.1 6.7
02:30 1011 29.85 841 24.83 -11.6 11.2 82 -14 6.7
02:35 1012 29.88 841 24.83 -11 12.2 81 -13.7 7.3
02:40 1012 29.88 841 24.83 -10.7 12.8 79 -13.6 7.4
02:45 1012 29.88 841 24.83 -10.7 12.8 80 -13.4 7.8
02:50 1012 29.88 841 24.83 -10.9 12.4 80 -13.7 7.3
02:55 1012 29.88 841 24.83 -10.9 12.3 82 -13.4 7.9
03:00 1012 29.88 841 24.83 -10.7 12.7 81 -13.4 7.8
03:05 1012 29.88 841 24.83 -10.9 12.5 82 -13.4 7.9
03:10 1012 29.88 841 24.83 -10.8 12.6 85 -12.9 8.8
03:15 1012 29.88 841 24.83 -10.4 13.3 82 -12.9 8.7
03:20 1012 29.88 841 24.83 -10.4 13.4 85 -12.5 9.6
03:25 1012 29.88 841 24.83 -10.7 12.7 85 -12.7 9.1
03:30 1012 29.88 841 24.83 -10.9 12.5 81 -13.4 7.8
03:35 1012 29.88 841 24.83 -11.1 12.1 85 -13.1 8.4
03:40 1012 29.88 841 24.83 -10.7 12.8 86 -12.6 9.3
03:45 1012 29.88 841 24.83 -10.2 13.6 82 -12.7 9.1
03:50 1012 29.88 841 24.83 -10.4 13.2 87 -12.2 10
03:55 1012 29.88 841 24.83 -10 14.1 88 -11.6 11.2
04:00 1012 29.88 841 24.83 -9.4 15.2 86 -11.4 11.6
04:05 1012 29.88 841 24.83 -9.1 15.7 87 -10.9 12.5
04:10 1012 29.88 841 24.83 -9 15.9 85 -11.1 12.1
04:15 1012 29.88 841 24.83 -9 15.9 82 -11.5 11.3
04:20 1012 29.88 841 24.83 -9.2 15.5 83 -11.5 11.3
04:25 1012 29.88 841 24.83 -9.4 15 84 -11.6 11.1
04:30 1012 29.88 842 24.86 -9.5 14.8 85 -11.6 11.1
04:35 1012 29.88 842 24.86 -9.5 15 83 -11.8 10.8
04:40 1012 29.88 842 24.86 -9.5 14.8 89 -11.1 12
04:45 1012 29.88 842 24.86 -8.5 16.7 81 -11.2 11.9
04:50 1012 29.88 842 24.86 -8.4 16.8 81 -11.2 11.8
04:55 1012 29.88 842 24.86 -8.8 16.2 75 -12.4 9.7
05:00 1013 29.91 842 24.86 -7.7 18.1 68 -12.6 9.4
05:05 1013 29.91 842 24.86 -6.6 20 63 -12.5 9.4
05:10 1012 29.88 842 24.86 -5.1 22.8 57 -12.3 9.9
05:15 1012 29.88 842 24.86 -4.9 23.1 54 -12.8 9
05:20 1012 29.88 842 24.86 -5 23 56 -12.5 9.6
05:25 1012 29.88 842 24.86 -4.2 24.5 53 -12.4 9.7
05:30 1012 29.88 842 24.86 -4.7 23.6 57 -11.9 10.5
05:35 1012 29.88 842 24.86 -6.4 20.5 71 -10.9 12.5
05:40 1013 29.91 842 24.86 -9.3 15.2 77 -12.6 9.3
05:45 1013 29.91 842 24.86 -8.2 17.2 69 -12.9 8.8
05:50 1013 29.91 842 24.86 -6.4 20.5 61 -12.8 9
05:55 1013 29.91 842 24.86 -5.5 22.1 59 -12.3 9.8
06:00 1013 29.91 842 24.86 -5.7 21.7 58 -12.6 9.3
06:05 1013 29.91 842 24.86 -5 23 56 -12.5 9.5
06:10 1013 29.91 842 24.86 -5.1 22.9 56 -12.5 9.5
06:15 1013 29.91 842 24.86 -5.1 22.7 59 -11.9 10.5
06:20 1013 29.91 842 24.86 -6.6 20 66 -12 10.4
06:25 1013 29.91 842 24.86 -7.6 18.2 67 -12.8 8.9
06:30 1013 29.91 842 24.86 -7.3 18.8 67 -12.4 9.7
06:35 1013 29.91 842 24.86 -7 19.5 66 -12.3 9.8
06:40 1013 29.91 842 24.86 -6.3 20.7 64 -12.1 10.3
06:45 1013 29.91 842 24.86 -5.8 21.6 63 -11.8 10.8
06:50 1013 29.91 842 24.86 -5.7 21.7 64 -11.6 11.2
06:55 1013 29.91 842 24.86 -5.8 21.5 64 -11.7 11
07:00 1013 29.91 842 24.86 -5.7 21.8 62 -11.8 10.7
07:05 1013 29.91 842 24.86 -6.2 20.8 66 -11.5 11.3
07:10 1013 29.91 842 24.86 -7.3 18.8 69 -12.1 10.3
07:15 1013 29.91 842 24.86 -8.2 17.2 72 -12.4 9.8
07:20 1013 29.91 842 24.86 -8.9 16 73 -12.9 8.7
07:25 1013 29.91 842 24.86 -8.3 17 72 -12.5 9.5
07:30 1013 29.91 842 24.86 -8.5 16.7 72 -12.8 9
07:35 1013 29.91 842 24.86 -8.5 16.6 70 -13.1 8.4
07:40 1013 29.91 843 24.89 -8.8 16.2 72 -12.9 8.8
07:45 1013 29.91 843 24.89 -9 15.7 73 -13 8.6
07:50 1013 29.91 843 24.89 -9.1 15.7 72 -13.2 8.2
07:55 1013 29.91 843 24.89 -9.1 15.6 73 -13 8.5
08:00 1013 29.91 843 24.89 -9.3 15.3 73 -13.3 8
08:05 1013 29.91 843 24.89 -8.8 16.1 74 -12.7 9.1
08:10 1013 29.91 843 24.89 -8.3 17 68 -13.2 8.3
08:15 1013 29.91 843 24.89 -7.7 18.1 67 -12.9 8.8
08:20 1014 29.94 843 24.89 -7.6 18.2 66 -12.9 8.8
08:25 1014 29.94 843 24.89 -7.4 18.6 65 -12.9 8.9
08:30 1014 29.94 843 24.89 -7.2 19 66 -12.5 9.5
08:35 1014 29.94 843 24.89 -7.6 18.3 65 -13 8.6
08:40 1014 29.94 843 24.89 -7.3 19 65 -12.8 9
08:45 1014 29.94 843 24.89 -7.5 18.5 67 -12.6 9.2
08:50 1014 29.94 843 24.89 -7.3 18.8 65 -12.9 8.8
08:55 1014 29.94 843 24.89 -6.7 20 61 -13 8.6
09:00 1014 29.94 843 24.89 -6.6 20 63 -12.5 9.5
09:05 1014 29.94 843 24.89 -6.5 20.3 65 -12.1 10.2
09:10 1014 29.94 843 24.89 -6.4 20.5 62 -12.5 9.5
09:15 1014 29.94 843 24.89 -5.8 21.6 60 -12.4 9.7
09:20 1014 29.94 843 24.89 -5.5 22.1 57 -12.6 9.3
09:25 1014 29.94 843 24.89 -5.2 22.7 58 -12.3 9.9
09:30 1014 29.94 843 24.89 -4.7 23.5 55 -12.5 9.5
09:35 1014 29.94 843 24.89 -4.3 24.3 55 -12.1 10.3
09:40 1014 29.94 843 24.89 -4.4 24.2 56 -11.9 10.5
09:45 1014 29.94 844 24.92 -4.3 24.2 57 -11.6 11.1
09:50 1014 29.94 844 24.92 -4.3 24.2 55 -12.1 10.3
09:55 1014 29.94 844 24.92 -5 23 57 -12.2 10.1
10:00 1014 29.94 844 24.92 -4.8 23.4 57 -12 10.5
10:05 1014 29.94 844 24.92 -5.3 22.5 61 -11.6 11.1
10:10 1014 29.94 844 24.92 -5.9 21.3 62 -12.1 10.1
10:15 1014 29.94 844 24.92 -6.5 20.4 63 -12.4 9.6
10:20 1014 29.94 844 24.92 -6.7 20 64 -12.4 9.6
10:25 1014 29.94 844 24.92 -6.3 20.7 63 -12.2 10
10:30 1014 29.94 844 24.92 -5.8 21.6 61 -12.2 10
10:35 1014 29.94 844 24.92 -5.2 22.6 59 -12.1 10.3
10:40 1014 29.94 844 24.92 -4.7 23.6 57 -11.9 10.5
10:45 1014 29.94 844 24.92 -3.7 25.4 52 -12.2 10
10:50 1015 29.97 844 24.92 -3.4 25.8 52 -12 10.5
10:55 1014 29.94 844 24.92 -3.6 25.6 51 -12.4 9.7
11:00 1015 29.97 844 24.92 -3.8 25.2 53 -12.1 10.2
11:05 1014 29.94 844 24.92 -3 26.5 49 -12.2 10
11:10 1015 29.97 844 24.92 -2 28.3 48 -11.6 11.2
11:15 1015 29.97 844 24.92 -1.5 29.3 45 -12 10.4
11:20 1015 29.97 844 24.92 -1 30.2 45 -11.5 11.2
11:25 1015 29.97 844 24.92 -1.1 30.1 47 -11 12.1
11:30 1015 29.97 844 24.92 -1.2 29.9 46 -11.4 11.4
11:35 1015 29.97 844 24.92 -1 30.2 47 -10.9 12.5
11:40 1015 29.97 844 24.92 -0.7 30.8 45 -11.3 11.6
11:45 1015 29.97 844 24.92 -0.5 31.2 45 -11 12.2
11:50 1014 29.94 844 24.92 -0.4 31.3 45 -10.9 12.4
11:55 1015 29.97 844 24.92 -0.9 30.4 46 -11 12.2
12:00 1015 29.97 844 24.92 -1.3 29.7 49 -10.6 12.9
12:05 1014 29.94 844 24.92 -1.7 29 50 -10.8 12.6
12:10 1014 29.94 844 24.92 -1.4 29.5 49 -10.8 12.6
12:15 1014 29.94 844 24.92 -1.3 29.6 47 -11.2 11.8
12:20 1014 29.94 844 24.92 -0.7 30.7 46 -11.1 12
12:25 1014 29.94 844 24.92 -0 32 44 -10.8 12.6
12:30 1014 29.94 844 24.92 0.5 32.9 44 -10.4 13.3
12:35 1014 29.94 843 24.89 0.6 33.1 43 -10.5 13.2
12:40 1014 29.94 843 24.89 0.2 32.4 44 -10.8 12.6
12:45 1014 29.94 843 24.89 0.6 33.1 40 -11.5 11.3
12:50 1014 29.94 843 24.89 0.7 33.2 42 -10.8 12.6
12:55 1014 29.94 843 24.89 0.8 33.5 43 -10.3 13.5
13:00 1014 29.94 843 24.89 1.1 34 40 -11 12.2
13:05 1014 29.94 843 24.89 1.8 35.2 40 -10.6 12.9
13:10 1014 29.94 843 24.89 1.9 35.4 41 -10.1 13.8
13:15 1014 29.94 843 24.89 1.3 34.3 43 -10 14
13:20 1014 29.94 843 24.89 1.3 34.4 42 -10.2 13.7
13:25 1014 29.94 843 24.89 1.1 34 43 -10 14
13:30 1014 29.94 843 24.89 1.2 34.1 43 -10 13.9
13:35 1014 29.94 843 24.89 1.1 34 45 -9.5 14.8
13:40 1014 29.94 843 24.89 1.1 33.9 45 -9.7 14.5
13:45 1014 29.94 843 24.89 0.7 33.3 47 -9.3 15.2
13:50 1014 29.94 843 24.89 0.4 32.7 47 -9.6 14.7
13:55 1014 29.94 843 24.89 -0.2 31.6 50 -9.5 15
14:00 1014 29.94 843 24.89 -0.5 31.1 51 -9.5 14.9
14:05 1014 29.94 843 24.89 -0.6 30.9 50 -9.8 14.4
14:10 1014 29.94 843 24.89 -0.6 30.9 53 -9.1 15.7
14:15 1014 29.94 843 24.89 -0.6 30.8 53 -9.2 15.5
14:20 1014 29.94 843 24.89 -0.8 30.5 53 -9.3 15.2
14:25 1014 29.94 843 24.89 -1 30.3 52 -9.5 14.8
14:30 1014 29.94 843 24.89 -0.9 30.3 53 -9.3 15.3
14:35 1014 29.94 843 24.89 -0.9 30.3 53 -9.5 15
14:40 1014 29.94 843 24.89 -0.9 30.3 52 -9.5 14.8
14:45 1014 29.94 843 24.89 -0.7 30.8 53 -9.1 15.7
14:50 1014 29.94 843 24.89 -0.5 31 53 -9 15.7
14:55 1014 29.94 843 24.89 -0.7 30.7 54 -8.8 16.2
15:00 1014 29.94 843 24.89 -0.8 30.6 54 -9 15.9
15:05 1014 29.94 843 24.89 -0.7 30.7 51 -9.6 14.7
15:10 1014 29.94 843 24.89 -0.9 30.4 51 -9.7 14.5
15:15 1014 29.94 843 24.89 -0.9 30.5 51 -9.8 14.3
15:20 1014 29.94 843 24.89 -0.2 31.6 47 -10.3 13.5
15:25 1014 29.94 844 24.92 0.2 32.4 46 -10.2 13.7
15:30 1014 29.94 844 24.92 0.4 32.6 47 -9.6 14.7
15:35 1014 29.94 844 24.92 -0.2 31.7 49 -9.8 14.4
15:40 1015 29.97 844 24.92 -0.4 31.2 50 -9.7 14.5
15:45 1015 29.97 844 24.92 -0.3 31.4 48 -9.9 14.2
15:50 1015 29.97 844 24.92 -0.4 31.3 49 -9.7 14.5
15:55 1015 29.97 844 24.92 -0.4 31.3 48 -10.1 13.7
16:00 1015 29.97 844 24.92 -0.6 30.8 52 -9.3 15.2
16:05 1015 29.97 844 24.92 -0.9 30.4 51 -9.8 14.3
16:10 1015 29.97 844 24.92 -0.9 30.4 51 -9.9 14.1
16:15 1015 29.97 844 24.92 -1 30.3 51 -9.9 14.2
16:20 1015 29.97 844 24.92 -1.1 30 50 -10.3 13.5
16:25 1015 29.97 844 24.92 -0.7 30.7 47 -10.6 13
16:30 1015 29.97 844 24.92 -0.5 31.1 49 -10 14
16:35 1015 29.97 844 24.92 -0.7 30.7 49 -10.2 13.6
16:40 1015 29.97 844 24.92 -0.9 30.4 50 -10.2 13.7
16:45 1015 29.97 844 24.92 -1 30.3 50 -10.2 13.7
16:50 1015 29.97 844 24.92 -1.1 30 51 -10.1 13.9
16:55 1015 29.97 844 24.92 -1.4 29.5 52 -10 14
17:00 1015 29.97 844 24.92 -1.5 29.4 51 -10.3 13.5
17:05 1015 29.97 844 24.92 -1.6 29.1 52 -10.2 13.7
17:10 1015 29.97 844 24.92 -1.8 28.7 53 -10.1 13.8
17:15 1015 29.97 844 24.92 -2 28.4 55 -10 14
17:20 1015 29.97 844 24.92 -2.1 28.3 54 -10.1 13.8
17:25 1015 29.97 844 24.92 -2.2 28 54 -10.3 13.5
17:30 1015 29.97 844 24.92 -2.3 27.8 55 -10.1 13.8
17:35 1015 29.97 844 24.92 -2.4 27.6 56 -10.1 13.9
17:40 1015 29.97 844 24.92 -2.5 27.4 57 -10 13.9
17:45 1015 29.97 845 24.95 -2.6 27.3 56 -10.2 13.6
17:50 1015 29.97 845 24.95 -2.5 27.4 56 -10.2 13.7
17:55 1015 29.97 845 24.95 -2.4 27.6 55 -10.3 13.5
18:00 1015 29.97 845 24.95 -2.3 27.8 54 -10.5 13.1
18:05 1015 29.97 845 24.95 -2.3 27.8 54 -10.3 13.4
18:10 1015 29.97 845 24.95 -2.4 27.6 54 -10.5 13.1
18:15 1015 29.97 845 24.95 -2.4 27.6 54 -10.5 13
18:20 1015 29.97 845 24.95 -2.5 27.6 54 -10.6 13
18:25 1015 29.97 845 24.95 -2.7 27.2 55 -10.5 13.2
18:30 1015 29.97 845 24.95 -3 26.6 55 -10.7 12.7
18:35 1016 30 845 24.95 -3 26.5 56 -10.7 12.7
18:40 1016 30 845 24.95 -3 26.7 55 -10.8 12.6
18:45 1016 30 845 24.95 -3 26.6 55 -10.8 12.6
18:50 1016 30 845 24.95 -3.1 26.3 56 -10.8 12.6
18:55 1015 29.97 845 24.95 -3.2 26.2 56 -10.9 12.4
19:00 1016 30 845 24.95 -3.1 26.4 55 -10.9 12.4
19:05 1016 30 845 24.95 -3 26.6 55 -10.8 12.6
19:10 1016 30 845 24.95 -2.9 26.7 54 -11.1 12.1
19:15 1016 30 845 24.95 -2.9 26.8 54 -11 12.3
19:20 1016 30 845 24.95 -2.9 26.8 53 -11.1 12
19:25 1016 30 845 24.95 -3.2 26.2 55 -11.1 12.1
19:30 1016 30 845 24.95 -3.4 25.8 55 -11.3 11.7
19:35 1016 30 845 24.95 -3.5 25.7 55 -11.3 11.7
19:40 1016 30 845 24.95 -3.5 25.7 55 -11.2 11.8
19:45 1016 30 845 24.95 -4 24.8 57 -11.4 11.5
19:50 1016 30 845 24.95 -4.2 24.4 57 -11.4 11.4
19:55 1016 30 845 24.95 -4.3 24.2 58 -11.5 11.3
20:00 1016 30 845 24.95 -4.6 23.7 58 -11.6 11.2
20:05 1016 30 845 24.95 -4.7 23.6 58 -11.8 10.8
20:10 1016 30 845 24.95 -4.5 24 57 -11.7 11
20:15 1016 30 845 24.95 -4.5 24 59 -11.4 11.5
20:20 1016 30 845 24.95 -4.7 23.5 59 -11.5 11.2
20:25 1016 30 845 24.95 -4.8 23.3 59 -11.6 11.2
20:30 1016 30 845 24.95 -4.6 23.7 58 -11.7 11
20:35 1016 30 845 24.95 -4.6 23.8 58 -11.7 10.9
20:40 1016 30 845 24.95 -4.5 23.9 57 -11.7 10.9
20:45 1016 30 845 24.95 -4.5 23.9 57 -11.8 10.8
20:50 1016 30 845 24.95 -4.6 23.7 57 -11.8 10.8
20:55 1016 30 845 24.95 -4.7 23.5 58 -11.8 10.7
21:00 1016 30 845 24.95 -4.6 23.7 57 -11.8 10.7
21:05 1016 30 845 24.95 -4.9 23.2 57 -12.2 10.1
21:10 1016 30 845 24.95 -4.7 23.5 57 -12.1 10.2
21:15 1016 30 845 24.95 -4.1 24.6 54 -12.1 10.3
21:20 1016 30 845 24.95 -4.3 24.2 54 -12.2 10
21:25 1016 30 845 24.95 -4.2 24.4 53 -12.4 9.7
21:30 1016 30 845 24.95 -4.1 24.6 52 -12.5 9.4
21:35 1016 30 845 24.95 -4.5 23.9 53 -12.6 9.3
21:40 1016 30 845 24.95 -4.9 23.2 54 -12.9 8.8
21:45 1016 30 845 24.95 -5.2 22.6 56 -12.8 9
21:50 1016 30 845 24.95 -5.2 22.6 55 -12.8 8.9
21:55 1016 30 845 24.95 -5 22.9 55 -12.7 9.1
22:00 1016 30 845 24.95 -5 23.1 54 -12.8 9
22:05 1016 30 845 24.95 -5.7 21.7 58 -12.7 9.2
22:10 1016 30 845 24.95 -6 21.2 57 -13.2 8.2
22:15 1016 30 845 24.95 -5.9 21.4 57 -13.2 8.2
22:20 1016 30 845 24.95 -6 21.2 55 -13.6 7.6
22:25 1016 30 845 24.95 -5.6 21.9 54 -13.4 7.8
22:30 1016 30 845 24.95 -5.3 22.4 55 -13 8.7
22:35 1016 30 845 24.95 -5.9 21.3 56 -13.3 8.1
22:40 1016 30 845 24.95 -6 21.3 57 -13.1 8.4
22:45 1016 30 845 24.95 -6 21.2 59 -12.8 8.9
22:50 1016 30 845 24.95 -5.7 21.7 57 -13 8.6
22:55 1016 30 845 24.95 -5.5 22.1 57 -12.8 9
23:00 1016 30 845 24.95 -5.7 21.7 56 -13.1 8.5
23:05 1016 30 845 24.95 -5.8 21.5 59 -12.6 9.3
23:10 1016 30 845 24.95 -6.6 20.2 61 -13 8.7
23:15 1016 30 845 24.95 -6.7 20 60 -13.3 8.1
23:20 1016 30 845 24.95 -6.7 20 62 -12.9 8.8
23:25 1016 30 845 24.95 -6.9 19.7 61 -13.2 8.3
23:30 1016 30 845 24.95 -6.8 19.7 61 -13.1 8.4
23:35 1016 30 845 24.95 -6.5 20.2 61 -13 8.7
23:40 1016 30 845 24.95 -6.7 19.9 62 -12.9 8.9
23:45 1016 30 845 24.95 -7.2 19.1 63 -13 8.6
23:50 1016 30 845 24.95 -7.7 18.2 65 -13.2 8.3
23:55 1016 30 845 24.95 -8.1 17.5 67 -13.1 8.4
24:00 1016 30 845 24.95 -8.1 17.5 66 -13.3 8